Time;durP1;ratioP1;P1;durP2;ratioP2;P2;SDS_P1;SDS_P2;PMS_P1;PMS_P2;Temp;Humidity;BMP_temperature;BMP_pressure;BME280_temperature;BME280_humidity;BME280_pressure;Samples;Min_cycle;Max_cycle;Signal;HPM_P1;HPM_P2
2023/10/30 00:01:07;;;;;;;7.82;2.00;;;11.20;99.90;;;;;;6276142;22;20072;-90
2023/10/30 00:03:33;;;;;;;8.57;2.10;;;10.60;99.90;;;;;;6275972;22;20478;-90
2023/10/30 00:06:04;;;;;;;10.75;5.07;;;10.70;99.90;;;;;;6281548;22;20026;-90
2023/10/30 00:08:30;;;;;;;10.55;3.05;;;9.60;99.90;;;;;;6283127;22;20050;-87
2023/10/30 00:11:21;;;;;;;7.03;1.80;;;10.40;99.90;;;;;;6284869;22;20466;-88
2023/10/30 00:13:46;;;;;;;10.68;2.17;;;9.60;99.90;;;;;;6279315;22;20088;-88
2023/10/30 00:16:12;;;;;;;8.93;1.77;;;11.10;99.90;;;;;;6278734;22;20011;-88
2023/10/30 00:18:41;;;;;;;5.85;2.08;;;10.80;99.90;;;;;;6280200;22;20021;-88
2023/10/30 00:21:07;;;;;;;8.02;2.05;;;10.80;99.90;;;;;;6283586;22;20019;-87
2023/10/30 00:23:33;;;;;;;12.77;2.17;;;10.50;99.90;;;;;;6278264;22;20004;-88
2023/10/30 00:26:02;;;;;;;8.48;2.15;;;10.30;99.90;;;;;;6307424;22;20388;-88
2023/10/30 00:28:29;;;;;;;7.43;2.00;;;9.40;99.90;;;;;;6282591;22;20047;-87
2023/10/30 00:30:56;;;;;;;8.95;2.30;;;10.30;99.90;;;;;;6278912;22;20022;-91
2023/10/30 00:33:31;;;;;;;8.45;2.22;;;9.00;99.90;;;;;;6279481;22;20019;-90
2023/10/30 00:35:56;;;;;;;8.55;2.15;;;8.80;99.90;;;;;;6279754;22;20339;-90
2023/10/30 00:38:22;;;;;;;6.27;1.93;;;9.20;99.90;;;;;;6278360;22;20023;-91
2023/10/30 00:40:48;;;;;;;8.40;2.30;;;8.40;99.90;;;;;;6279428;22;20022;-90
2023/10/30 00:43:13;;;;;;;7.13;2.00;;;10.20;99.90;;;;;;6279271;22;20459;-90
2023/10/30 00:45:39;;;;;;;10.07;2.40;;;10.60;99.90;;;;;;6278965;22;20325;-88
2023/10/30 00:48:46;;;;;;;8.07;2.07;;;9.40;99.90;;;;;;6254676;22;20449;-89
2023/10/30 00:51:12;;;;;;;7.80;1.87;;;9.80;99.90;;;;;;6234153;22;20024;-88
2023/10/30 00:53:56;;;;;;;5.67;1.87;;;10.40;99.90;;;;;;6279480;22;20022;-90
2023/10/30 00:56:21;;;;;;;9.43;2.20;;;10.40;99.90;;;;;;6279558;22;20019;-91
2023/10/30 00:58:47;;;;;;;5.83;1.83;;;10.50;99.90;;;;;;6279691;22;20478;-90
2023/10/30 01:01:16;;;;;;;7.70;2.10;;;10.90;99.90;;;;;;6279489;22;20339;-90
2023/10/30 01:03:42;;;;;;;9.93;2.00;;;9.50;99.90;;;;;;6280024;22;20019;-90
2023/10/30 01:06:08;;;;;;;10.63;2.20;;;9.40;99.90;;;;;;6278421;22;20007;-90
2023/10/30 01:08:33;;;;;;;7.67;1.83;;;9.50;99.90;;;;;;6278853;22;20080;-90
2023/10/30 01:10:59;;;;;;;9.60;2.03;;;9.60;99.90;;;;;;6279358;22;20030;-90
2023/10/30 01:13:26;;;;;;;7.97;2.10;;;9.90;99.90;;;;;;6277967;22;20021;-90
2023/10/30 01:16:01;;;;;;;9.30;2.53;;;9.40;99.90;;;;;;6281503;22;20046;-91
2023/10/30 01:18:26;;;;;;;8.13;2.20;;;10.40;99.90;;;;;;6255507;22;20015;-90
2023/10/30 01:20:52;;;;;;;9.30;2.10;;;9.50;99.90;;;;;;6280390;22;20014;-90
2023/10/30 01:23:18;;;;;;;10.00;2.43;;;10.70;99.90;;;;;;6281368;22;20312;-90
2023/10/30 01:25:47;;;;;;;7.73;2.03;;;9.20;99.90;;;;;;6280399;22;20507;-90
2023/10/30 01:28:12;;;;;;;9.93;2.00;;;10.30;99.90;;;;;;6281339;22;20038;-90
2023/10/30 01:30:53;;;;;;;8.60;2.00;;;10.50;99.90;;;;;;6281369;22;20019;-91
2023/10/30 01:33:19;;;;;;;9.17;2.30;;;9.10;99.90;;;;;;6279996;22;20396;-90
2023/10/30 01:35:45;;;;;;;9.90;2.30;;;10.20;99.90;;;;;;6281576;22;20051;-90
2023/10/30 01:40:37;;;;;;;9.77;2.13;;;9.30;99.90;;;;;;6309270;22;20018;-90
2023/10/30 01:43:11;;;;;;;8.45;2.25;;;9.00;99.90;;;;;;6281662;22;20015;-90
2023/10/30 01:45:37;;;;;;;7.53;1.90;;;9.40;99.90;;;;;;6280944;22;20022;-90
2023/10/30 01:48:03;;;;;;;8.73;2.35;;;9.90;99.90;;;;;;6280371;22;20015;-90
2023/10/30 01:50:30;;;;;;;9.85;2.20;;;9.40;99.90;;;;;;6283620;22;20019;-89
2023/10/30 01:52:58;;;;;;;7.53;2.25;;;9.90;99.90;;;;;;6284829;22;20061;-90
2023/10/30 01:55:24;;;;;;;11.73;2.10;;;10.50;99.90;;;;;;6279713;22;20325;-90
2023/10/30 01:57:50;;;;;;;12.05;2.45;;;9.50;99.90;;;;;;6280987;22;20008;-90
2023/10/30 02:00:16;;;;;;;10.15;2.30;;;10.60;99.90;;;;;;6284411;22;20061;-90
2023/10/30 02:02:43;;;;;;;9.52;2.05;;;9.60;99.90;;;;;;6280131;22;20448;-90
2023/10/30 02:05:09;;;;;;;11.32;2.55;;;9.60;99.90;;;;;;6281159;22;20086;-90
2023/10/30 02:07:37;;;;;;;9.10;2.10;;;10.10;99.90;;;;;;6280634;22;20018;-89
2023/10/30 02:10:23;;;;;;;11.20;2.30;;;10.90;99.90;;;;;;6279717;22;20098;-91
2023/10/30 02:12:50;;;;;;;10.20;2.30;;;10.80;99.90;;;;;;6266463;22;20015;-90
2023/10/30 02:15:16;;;;;;;11.95;2.60;;;10.80;99.90;;;;;;6279424;22;20054;-91
2023/10/30 02:17:45;;;;;;;11.18;2.25;;;10.40;99.90;;;;;;6281469;22;20015;-89
2023/10/30 02:20:11;;;;;;;10.13;2.40;;;11.30;99.90;;;;;;6280024;22;20089;-90
2023/10/30 02:22:37;;;;;;;10.18;2.30;;;10.00;99.90;;;;;;6280259;22;20042;-90
2023/10/30 02:25:04;;;;;;;10.73;2.75;;;10.00;99.90;;;;;;6282230;22;20325;-90
2023/10/30 02:27:30;;;;;;;14.32;2.70;;;10.10;99.90;;;;;;6280592;22;20015;-90
2023/10/30 02:29:55;;;;;;;10.43;2.00;;;10.10;99.90;;;;;;6279630;22;20026;-90
2023/10/30 02:32:21;;;;;;;12.85;2.30;;;10.30;99.90;;;;;;6280617;22;20026;-89
2023/10/30 02:34:47;;;;;;;11.55;2.40;;;10.20;99.90;;;;;;6280446;22;20011;-90
2023/10/30 02:37:13;;;;;;;12.68;2.15;;;10.30;99.90;;;;;;6279674;22;20034;-90
2023/10/30 02:39:38;;;;;;;8.77;2.20;;;9.60;99.90;;;;;;6280636;22;20110;-90
2023/10/30 02:42:04;;;;;;;12.02;2.25;;;10.20;99.90;;;;;;6280649;22;20016;-90
2023/10/30 02:44:30;;;;;;;11.43;2.65;;;10.30;99.90;;;;;;6279627;22;20077;-90
2023/10/30 02:46:57;;;;;;;13.00;2.35;;;11.40;99.90;;;;;;6280645;22;20050;-91
2023/10/30 02:49:22;;;;;;;8.82;2.30;;;10.60;99.90;;;;;;6280366;22;20022;-90
2023/10/30 02:51:49;;;;;;;9.95;2.10;;;10.50;99.90;;;;;;6279928;22;20392;-90
2023/10/30 02:54:18;;;;;;;8.43;2.13;;;11.50;99.90;;;;;;6280879;22;20015;-89
2023/10/30 02:56:59;;;;;;;15.18;2.30;;;10.00;99.90;;;;;;6281057;22;20069;-90
2023/10/30 02:59:40;;;;;;;10.23;2.20;;;10.60;99.90;;;;;;6279503;22;20015;-90
2023/10/30 03:02:06;;;;;;;11.00;2.17;;;10.50;99.90;;;;;;6280642;22;20019;-90
2023/10/30 03:04:32;;;;;;;11.70;2.58;;;11.50;99.90;;;;;;6279421;22;20019;-89
2023/10/30 03:07:01;;;;;;;11.25;2.30;;;12.00;99.90;;;;;;6290817;22;20015;-89
2023/10/30 03:09:31;;;;;;;10.52;2.03;;;10.60;99.90;;;;;;6295422;22;20015;-91
2023/10/30 03:11:56;;;;;;;11.32;2.15;;;10.50;99.90;;;;;;6288613;22;20050;-89
2023/10/30 03:14:23;;;;;;;12.15;2.30;;;10.50;99.90;;;;;;6284501;22;20023;-90
2023/10/30 03:16:48;;;;;;;12.77;3.00;;;10.50;99.90;;;;;;6280640;22;20019;-89
2023/10/30 03:19:14;;;;;;;13.30;2.10;;;11.30;99.90;;;;;;6279569;22;20481;-90
2023/10/30 03:21:40;;;;;;;12.23;2.38;;;11.10;99.90;;;;;;6284449;22;20017;-90
2023/10/30 03:24:06;;;;;;;9.88;2.10;;;11.90;99.90;;;;;;6284267;22;20043;-90
2023/10/30 03:26:32;;;;;;;15.80;3.22;;;10.50;99.90;;;;;;6282907;22;20086;-90
2023/10/30 03:28:58;;;;;;;10.60;2.20;;;11.40;99.90;;;;;;6281192;22;20019;-90
2023/10/30 03:31:23;;;;;;;9.38;2.17;;;11.80;99.90;;;;;;6284257;22;20015;-89
2023/10/30 03:33:49;;;;;;;11.98;3.03;;;10.40;99.90;;;;;;6283365;22;20035;-90
2023/10/30 03:36:19;;;;;;;9.85;2.10;;;10.40;99.90;;;;;;6281099;22;20330;-90
2023/10/30 03:38:45;;;;;;;10.63;2.25;;;10.40;99.90;;;;;;6279720;22;20033;-89
2023/10/30 03:41:10;;;;;;;11.13;2.30;;;10.40;99.90;;;;;;6278735;22;20019;-90
2023/10/30 03:43:39;;;;;;;9.05;1.90;;;11.60;99.90;;;;;;6280895;22;20003;-90
2023/10/30 03:46:05;;;;;;;14.00;2.72;;;11.20;99.90;;;;;;6280391;22;20015;-90
2023/10/30 03:48:31;;;;;;;10.27;2.25;;;10.70;99.90;;;;;;6278726;22;20316;-90
2023/10/30 03:50:57;;;;;;;14.75;2.78;;;11.40;99.90;;;;;;6279736;22;20019;-90
2023/10/30 03:53:22;;;;;;;14.38;2.40;;;11.20;99.90;;;;;;6278841;22;20505;-90
2023/10/30 03:56:16;;;;;;;10.73;2.60;;;10.40;99.90;;;;;;6279609;22;20054;-90
2023/10/30 03:58:42;;;;;;;12.35;2.40;;;11.50;99.90;;;;;;6263621;22;20023;-91
2023/10/30 04:01:07;;;;;;;12.70;2.03;;;10.50;99.90;;;;;;6278729;22;20324;-91
2023/10/30 04:03:34;;;;;;;12.55;2.00;;;11.30;99.90;;;;;;6279709;22;20021;-90
2023/10/30 04:06:03;;;;;;;9.00;2.05;;;11.30;99.90;;;;;;6280332;22;20048;-91
2023/10/30 04:08:29;;;;;;;12.70;2.20;;;10.20;99.90;;;;;;6279166;22;20101;-91
2023/10/30 04:10:55;;;;;;;10.90;2.03;;;11.10;99.90;;;;;;6280014;22;20065;-91
2023/10/30 04:13:21;;;;;;;10.93;2.20;;;10.50;99.90;;;;;;6279938;22;20093;-91
2023/10/30 04:15:56;;;;;;;10.52;2.15;;;9.90;99.90;;;;;;6278944;22;20015;-90
2023/10/30 04:18:21;;;;;;;13.75;2.45;;;11.20;99.90;;;;;;6279623;22;20011;-91
2023/10/30 04:20:49;;;;;;;13.43;2.20;;;11.20;99.90;;;;;;6279918;22;20073;-91
2023/10/30 04:23:30;;;;;;;10.70;2.25;;;10.60;99.90;;;;;;6277407;22;20015;-90
2023/10/30 04:26:05;;;;;;;10.32;2.75;;;11.10;99.90;;;;;;6280064;22;20023;-91
2023/10/30 04:28:30;;;;;;;14.07;2.53;;;10.80;99.90;;;;;;6279553;22;20026;-90
2023/10/30 04:30:56;;;;;;;13.18;2.63;;;11.40;99.90;;;;;;6279285;22;20019;-90
2023/10/30 04:33:37;;;;;;;13.50;2.40;;;10.60;99.90;;;;;;6279435;22;20336;-91
2023/10/30 04:36:04;;;;;;;11.95;2.30;;;9.60;99.90;;;;;;6279255;22;20097;-91
2023/10/30 04:38:33;;;;;;;16.38;3.08;;;9.80;99.90;;;;;;6279044;22;20019;-90
2023/10/30 04:44:29;;;;;;;15.20;2.28;;;9.80;99.90;;;;;;6306302;22;20020;-90
2023/10/30 04:46:55;;;;;;;9.73;2.10;;;11.10;99.90;;;;;;6278900;22;20039;-90
2023/10/30 04:49:21;;;;;;;11.10;2.10;;;11.00;99.90;;;;;;6279923;22;20440;-91
2023/10/30 04:51:46;;;;;;;11.10;2.20;;;11.30;99.90;;;;;;6281071;22;20069;-90
2023/10/30 04:54:12;;;;;;;10.70;2.28;;;9.70;99.90;;;;;;6281103;22;20026;-90
2023/10/30 04:56:38;;;;;;;13.30;2.28;;;10.00;99.90;;;;;;6285799;22;20033;-89
2023/10/30 04:59:03;;;;;;;9.68;2.17;;;9.60;99.90;;;;;;6280910;22;20011;-91
2023/10/30 05:01:29;;;;;;;11.75;2.20;;;10.10;99.90;;;;;;6281267;22;20019;-90
2023/10/30 05:03:54;;;;;;;15.90;2.38;;;9.70;99.90;;;;;;6284954;22;20030;-90
2023/10/30 05:06:20;;;;;;;12.88;2.40;;;9.60;99.90;;;;;;6281405;22;20017;-90
2023/10/30 05:08:46;;;;;;;13.60;2.45;;;9.60;99.90;;;;;;6281332;22;20076;-90
2023/10/30 05:11:11;;;;;;;12.50;2.28;;;10.70;99.90;;;;;;6283326;22;20516;-90
2023/10/30 05:13:37;;;;;;;11.43;2.20;;;10.80;99.90;;;;;;6282051;22;20011;-90
2023/10/30 05:16:03;;;;;;;11.63;2.38;;;9.50;99.90;;;;;;6282193;22;20036;-90
2023/10/30 05:18:30;;;;;;;9.77;2.00;;;9.50;99.90;;;;;;6284746;22;20015;-89
2023/10/30 05:20:58;;;;;;;11.93;2.45;;;10.70;99.90;;;;;;6281465;22;20015;-89
2023/10/30 05:23:38;;;;;;;9.93;2.17;;;9.40;99.90;;;;;;6308140;22;20015;-90
2023/10/30 05:26:03;;;;;;;13.02;2.55;;;10.90;99.90;;;;;;6280289;22;20015;-90
2023/10/30 05:28:29;;;;;;;12.07;2.40;;;10.60;99.90;;;;;;6280853;22;20022;-90
2023/10/30 05:30:57;;;;;;;13.07;2.40;;;9.40;99.90;;;;;;6281899;22;20098;-90
2023/10/30 05:33:22;;;;;;;12.85;2.30;;;9.30;99.90;;;;;;6280611;22;20015;-90
2023/10/30 05:35:54;;;;;;;11.40;2.28;;;9.40;99.90;;;;;;6281756;22;20023;-90
2023/10/30 05:38:22;;;;;;;13.77;2.53;;;9.30;99.90;;;;;;6281096;22;20353;-90
2023/10/30 05:40:48;;;;;;;11.05;2.55;;;10.20;99.90;;;;;;6280481;22;20498;-90
2023/10/30 05:43:13;;;;;;;10.93;2.42;;;9.30;99.90;;;;;;6280826;22;20023;-90
2023/10/30 05:45:39;;;;;;;13.95;2.53;;;10.50;99.90;;;;;;6282157;22;20042;-90
2023/10/30 05:48:05;;;;;;;12.73;2.38;;;9.50;99.90;;;;;;6280766;22;20019;-90
2023/10/30 05:50:33;;;;;;;10.25;2.25;;;9.30;99.90;;;;;;6308498;22;20377;-91
2023/10/30 05:52:59;;;;;;;13.45;2.58;;;10.60;99.90;;;;;;6280321;22;20100;-90
2023/10/30 05:55:26;;;;;;;9.35;2.90;;;10.60;99.90;;;;;;6281429;22;20019;-90
2023/10/30 05:58:01;;;;;;;11.68;2.13;;;10.50;99.90;;;;;;6281993;22;20343;-90
2023/10/30 06:00:27;;;;;;;15.02;2.60;;;10.70;99.90;;;;;;6280136;22;20338;-90
2023/10/30 06:03:02;;;;;;;11.38;2.35;;;9.40;99.90;;;;;;6281693;22;20015;-90
2023/10/30 06:05:28;;;;;;;10.23;2.20;;;9.40;99.90;;;;;;6281383;22;20042;-90
2023/10/30 06:08:28;;;;;;;12.07;2.20;;;9.80;99.90;;;;;;6290906;22;19999;-89
2023/10/30 06:10:54;;;;;;;10.50;2.70;;;9.60;99.90;;;;;;6288359;22;20022;-90
2023/10/30 06:13:20;;;;;;;9.88;2.40;;;10.60;99.90;;;;;;6280723;22;20447;-87
2023/10/30 06:15:45;;;;;;;15.13;2.65;;;9.50;99.90;;;;;;6280165;22;20408;-87
2023/10/30 06:18:23;;;;;;;14.85;2.80;;;11.00;99.90;;;;;;6280606;22;20058;-87
2023/10/30 06:20:51;;;;;;;11.00;2.25;;;9.60;99.90;;;;;;6280768;22;20041;-86
2023/10/30 06:23:17;;;;;;;9.13;1.90;;;10.10;99.90;;;;;;6279243;22;20475;-87
2023/10/30 06:25:44;;;;;;;12.13;2.45;;;9.60;99.90;;;;;;6280226;22;20042;-87
2023/10/30 06:28:12;;;;;;;13.90;2.90;;;9.60;99.90;;;;;;6282677;22;20043;-86
2023/10/30 06:30:38;;;;;;;13.25;2.35;;;9.60;99.90;;;;;;6280404;22;20454;-86
2023/10/30 06:33:06;;;;;;;16.85;2.65;;;10.40;99.90;;;;;;6280732;22;20015;-86
2023/10/30 06:35:37;;;;;;;10.65;2.25;;;10.30;99.90;;;;;;6283142;22;20019;-87
2023/10/30 06:38:09;;;;;;;12.00;2.20;;;10.70;99.90;;;;;;6280642;22;20497;-87
2023/10/30 06:40:35;;;;;;;17.23;5.30;;;9.60;99.90;;;;;;6280851;22;20030;-86
2023/10/30 06:43:00;;;;;;;20.53;7.53;;;9.70;99.90;;;;;;6279955;22;20501;-85
2023/10/30 06:45:29;;;;;;;12.30;2.53;;;9.50;99.90;;;;;;6280316;22;20026;-86
2023/10/30 06:48:20;;;;;;;10.73;2.15;;;10.50;99.90;;;;;;6274859;22;20084;-86
2023/10/30 06:50:47;;;;;;;15.25;3.35;;;9.80;99.90;;;;;;6274795;22;20012;-87
2023/10/30 06:53:12;;;;;;;10.50;3.50;;;10.40;99.90;;;;;;6274902;22;20011;-86
2023/10/30 06:55:39;;;;;;;13.18;2.53;;;10.90;99.90;;;;;;6278699;22;20073;-89
2023/10/30 06:58:04;;;;;;;12.63;2.72;;;9.70;99.90;;;;;;6275810;22;20027;-88
2023/10/30 07:00:30;;;;;;;16.52;3.30;;;9.70;99.90;;;;;;6275338;22;20015;-89
2023/10/30 07:02:55;;;;;;;10.98;2.40;;;9.80;99.90;;;;;;6278570;22;20016;-89
2023/10/30 07:05:21;;;;;;;12.10;2.70;;;9.80;99.90;;;;;;6276002;22;20012;-88
2023/10/30 07:08:08;;;;;;;17.15;3.17;;;11.30;99.90;;;;;;6275008;22;20430;-88
2023/10/30 07:10:43;;;;;;;10.82;3.10;;;9.60;99.90;;;;;;6273913;22;20016;-87
2023/10/30 07:13:15;;;;;;;9.18;2.20;;;10.00;99.90;;;;;;6274483;22;20047;-88
2023/10/30 07:15:40;;;;;;;12.52;2.53;;;11.10;99.90;;;;;;6275541;22;20030;-87
2023/10/30 07:18:06;;;;;;;17.15;3.47;;;10.00;99.90;;;;;;6274152;22;20436;-87
2023/10/30 07:20:44;;;;;;;14.65;2.95;;;11.30;99.90;;;;;;6274568;22;20012;-87
2023/10/30 07:23:10;;;;;;;12.07;2.42;;;9.30;99.90;;;;;;6274299;22;20466;-88
2023/10/30 07:25:35;;;;;;;14.95;3.45;;;11.50;99.90;;;;;;6273972;22;20102;-87
2023/10/30 07:28:01;;;;;;;12.75;2.90;;;11.50;99.90;;;;;;6275123;22;20054;-87
2023/10/30 07:30:27;;;;;;;10.40;2.40;;;11.50;99.90;;;;;;6274501;22;20047;-87
2023/10/30 07:32:52;;;;;;;11.05;2.78;;;11.30;99.90;;;;;;6274321;22;20019;-88
2023/10/30 07:35:18;;;;;;;12.10;2.40;;;11.60;99.90;;;;;;6274494;22;20011;-87
2023/10/30 07:37:44;;;;;;;9.25;2.45;;;10.10;99.90;;;;;;6272109;22;20317;-85
2023/10/30 07:40:10;;;;;;;12.90;2.65;;;11.60;99.90;;;;;;6273655;22;20020;-87
2023/10/30 07:42:45;;;;;;;14.77;3.45;;;10.30;99.90;;;;;;6274270;22;20020;-91
2023/10/30 07:45:12;;;;;;;10.32;2.28;;;11.60;99.90;;;;;;6274751;22;20327;-91
2023/10/30 07:47:37;;;;;;;14.52;2.88;;;10.40;99.90;;;;;;6274080;22;20348;-86
2023/10/30 07:50:04;;;;;;;14.55;3.15;;;11.90;99.90;;;;;;6274507;22;20050;-86
2023/10/30 07:52:30;;;;;;;12.63;2.75;;;10.50;99.90;;;;;;6273697;22;20086;-86
2023/10/30 07:54:55;;;;;;;12.23;3.47;;;11.40;99.90;;;;;;6273912;22;20051;-87
2023/10/30 07:57:22;;;;;;;12.20;2.45;;;10.70;99.90;;;;;;6274479;22;20463;-88
2023/10/30 07:59:48;;;;;;;11.48;2.38;;;11.90;99.90;;;;;;6277443;22;20129;-88
2023/10/30 08:02:13;;;;;;;11.65;2.35;;;10.70;99.90;;;;;;6273878;22;20046;-89
2023/10/30 08:04:39;;;;;;;13.38;2.70;;;12.20;99.90;;;;;;6274655;22;20018;-89
2023/10/30 08:07:07;;;;;;;14.95;2.75;;;10.80;99.90;;;;;;6275819;22;20094;-89
2023/10/30 08:09:58;;;;;;;14.20;2.35;;;10.90;99.90;;;;;;6273863;22;20020;-88
2023/10/30 08:12:24;;;;;;;9.95;2.42;;;10.90;99.90;;;;;;6274270;22;20095;-90
2023/10/30 08:15:16;;;;;;;11.05;2.20;;;10.70;99.90;;;;;;6272189;22;20054;-90
2023/10/30 08:17:48;;;;;;;14.15;2.25;;;12.30;99.90;;;;;;6273246;22;20024;-90
2023/10/30 08:20:14;;;;;;;11.30;2.35;;;11.10;99.90;;;;;;6274102;22;20046;-89
2023/10/30 08:22:40;;;;;;;10.65;2.30;;;11.90;99.90;;;;;;6273139;22;20070;-90
2023/10/30 08:25:06;;;;;;;15.65;2.83;;;12.60;99.90;;;;;;6273596;22;20106;-90
2023/10/30 08:27:35;;;;;;;9.85;2.20;;;11.20;99.90;;;;;;6272660;22;20022;-89
2023/10/30 08:30:16;;;;;;;12.95;2.88;;;11.20;99.90;;;;;;6272973;22;20094;-88
2023/10/30 08:32:45;;;;;;;12.18;2.40;;;11.60;99.90;;;;;;6273904;22;20019;-89
2023/10/30 08:35:48;;;;;;;9.48;2.85;;;12.70;99.90;;;;;;6272970;22;20062;-88
2023/10/30 08:38:14;;;;;;;13.55;2.40;;;11.40;99.90;;;;;;6273051;22;20015;-89
2023/10/30 08:40:40;;;;;;;11.63;2.25;;;12.40;99.90;;;;;;6274918;22;20512;-87
2023/10/30 08:43:06;;;;;;;12.70;2.33;;;12.80;99.90;;;;;;6272935;22;20016;-85
2023/10/30 08:45:32;;;;;;;14.07;2.70;;;11.90;99.90;;;;;;6273548;22;20023;-85
2023/10/30 08:47:57;;;;;;;9.65;2.20;;;13.10;99.90;;;;;;6273106;22;20405;-85
2023/10/30 08:50:23;;;;;;;9.82;2.28;;;11.70;99.90;;;;;;6270767;22;20023;-85
2023/10/30 08:52:49;;;;;;;12.10;2.40;;;11.70;99.90;;;;;;6275182;22;20042;-86
2023/10/30 08:55:14;;;;;;;9.32;2.15;;;11.80;99.90;;;;;;6273189;22;20047;-85
2023/10/30 08:57:40;;;;;;;16.42;2.95;;;12.90;99.90;;;;;;6272030;22;20020;-86
2023/10/30 09:00:07;;;;;;;9.15;2.30;;;11.70;99.90;;;;;;6273839;22;20012;-86
2023/10/30 09:02:36;;;;;;;10.18;2.30;;;11.90;99.90;;;;;;6273812;22;20008;-86
2023/10/30 09:05:03;;;;;;;12.73;2.95;;;12.70;99.90;;;;;;6273430;22;20019;-89
2023/10/30 09:07:29;;;;;;;13.63;2.38;;;12.10;99.90;;;;;;6276575;22;20019;-87
2023/10/30 09:09:55;;;;;;;15.80;2.38;;;13.50;99.90;;;;;;6277756;22;20476;-87
2023/10/30 09:12:27;;;;;;;13.35;2.63;;;12.50;99.90;;;;;;6276754;22;20026;-88
2023/10/30 09:15:08;;;;;;;12.52;2.55;;;12.20;99.90;;;;;;6275711;22;20318;-88
2023/10/30 09:17:34;;;;;;;9.50;2.20;;;12.20;99.90;;;;;;6273465;22;20011;-90
2023/10/30 09:20:06;;;;;;;12.85;2.33;;;13.30;99.90;;;;;;6273712;22;20103;-87
2023/10/30 09:22:33;;;;;;;9.18;2.53;;;12.30;99.90;;;;;;6273833;22;20016;-87
2023/10/30 09:24:58;;;;;;;10.75;2.30;;;12.40;99.90;;;;;;6273242;22;20019;-88
2023/10/30 09:27:24;;;;;;;10.93;2.30;;;12.40;99.90;;;;;;6273974;22;20008;-88
2023/10/30 09:29:53;;;;;;;10.77;2.42;;;13.60;99.90;;;;;;6277972;22;20019;-88
2023/10/30 09:32:19;;;;;;;12.73;2.10;;;13.60;99.90;;;;;;6273221;22;20098;-88
2023/10/30 09:34:44;;;;;;;10.82;2.35;;;12.20;99.90;;;;;;6274395;22;20125;-87
2023/10/30 09:37:10;;;;;;;13.93;2.63;;;13.50;99.90;;;;;;6278078;22;20020;-87
2023/10/30 09:39:36;;;;;;;11.68;2.38;;;13.30;99.90;;;;;;6274964;22;20023;-88
2023/10/30 09:42:02;;;;;;;11.50;2.42;;;13.10;99.90;;;;;;6276193;22;20022;-88
2023/10/30 09:44:29;;;;;;;9.80;2.20;;;12.20;99.90;;;;;;6276270;22;20027;-88
2023/10/30 09:46:56;;;;;;;14.52;2.60;;;12.90;99.90;;;;;;6275369;22;20023;-87
2023/10/30 09:49:23;;;;;;;14.35;2.63;;;12.20;99.90;;;;;;6275818;22;20023;-88
2023/10/30 09:52:30;;;;;;;13.30;2.45;;;13.60;99.90;;;;;;6274839;22;20015;-88
2023/10/30 09:55:50;;;;;;;14.82;3.75;;;12.20;99.90;;;;;;6274931;22;20030;-88
2023/10/30 09:58:31;;;;;;;12.43;2.72;;;12.40;99.90;;;;;;6294386;22;20023;-89
2023/10/30 10:01:20;;;;;;;11.00;2.70;;;12.40;99.90;;;;;;6279072;22;20090;-87
2023/10/30 10:03:55;;;;;;;11.30;2.30;;;12.40;99.90;;;;;;6280129;22;20016;-87
2023/10/30 10:06:20;;;;;;;13.93;2.85;;;13.90;99.90;;;;;;6280858;22;20351;-86
2023/10/30 10:12:36;;;;;;;14.93;3.53;;;13.60;99.90;;;;;;6307637;22;20023;-88
2023/10/30 10:15:30;;;;;;;12.48;2.47;;;13.50;99.90;;;;;;6279715;22;20098;-89
2023/10/30 10:17:56;;;;;;;11.55;2.65;;;12.80;99.90;;;;;;6278270;22;20102;-89
2023/10/30 10:20:22;;;;;;;10.25;2.28;;;13.90;99.90;;;;;;6279522;22;20096;-89
2023/10/30 10:22:51;;;;;;;11.80;2.10;;;14.30;99.90;;;;;;6280729;22;20161;-87
2023/10/30 10:25:18;;;;;;;10.48;2.42;;;13.30;99.90;;;;;;6280390;22;20030;-88
2023/10/30 10:28:13;;;;;;;14.02;2.92;;;14.60;99.90;;;;;;6283469;22;20431;-89
2023/10/30 10:30:38;;;;;;;11.43;2.25;;;14.40;99.90;;;;;;6275967;22;20022;-89
2023/10/30 10:33:10;;;;;;;12.38;2.50;;;15.00;99.90;;;;;;6280987;22;20089;-92
2023/10/30 10:35:49;;;;;;;12.55;3.20;;;15.10;99.90;;;;;;6284259;22;20046;-92
2023/10/30 10:38:16;;;;;;;9.90;2.10;;;13.70;99.90;;;;;;6284128;22;20042;-91
2023/10/30 10:40:51;;;;;;;15.48;5.72;;;15.10;99.90;;;;;;6280849;22;20047;-91
2023/10/30 10:43:19;;;;;;;13.30;2.63;;;14.70;99.90;;;;;;6279067;22;20478;-92
2023/10/30 10:46:33;;;;;;;11.93;2.40;;;14.10;99.90;;;;;;6280932;22;20439;-92
2023/10/30 10:49:18;;;;;;;14.02;2.50;;;13.80;99.90;;;;;;6255350;22;20019;-92
2023/10/30 10:52:12;;;;;;;10.43;2.40;;;15.00;99.90;;;;;;6280742;22;20043;-90
2023/10/30 10:55:13;;;;;;;13.75;3.22;;;14.10;99.90;;;;;;6280492;22;20094;-90
2023/10/30 10:58:22;;;;;;;15.55;2.42;;;14.10;99.90;;;;;;6279748;22;20061;-90
2023/10/30 11:16:17;;;;;;;8.80;1.85;;;14.00;99.90;;;;;;5131232;27;20383;-93
2023/10/30 11:21:29;;;;;;;13.85;2.40;;;14.60;99.90;;;;;;5118013;28;20104;-85
2023/10/30 11:24:33;;;;;;;11.65;2.60;;;14.20;99.90;;;;;;5123613;22;20196;-87
2023/10/30 11:27:33;;;;;;;12.27;2.72;;;15.30;99.90;;;;;;5112270;28;20044;-88
2023/10/30 11:30:11;;;;;;;16.83;4.32;;;13.90;99.90;;;;;;5112628;28;20046;-88
2023/10/30 11:32:49;;;;;;;12.20;2.13;;;13.90;99.90;;;;;;5111413;28;20055;-89
2023/10/30 11:35:18;;;;;;;11.57;2.28;;;13.40;99.90;;;;;;5111967;28;20044;-89
2023/10/30 11:37:49;;;;;;;12.05;2.38;;;15.40;99.90;;;;;;5111542;28;20479;-88
2023/10/30 11:40:32;;;;;;;11.35;3.03;;;13.80;99.90;;;;;;5128807;28;20039;-88
2023/10/30 11:43:50;;;;;;;12.43;2.75;;;14.00;99.90;;;;;;5112040;28;20046;-88
2023/10/30 11:47:12;;;;;;;9.88;2.15;;;14.00;99.90;;;;;;5097071;28;20196;-88
2023/10/30 11:50:00;;;;;;;12.85;2.50;;;14.00;99.90;;;;;;5018813;28;20044;-89
2023/10/30 11:53:08;;;;;;;13.55;2.85;;;15.50;99.90;;;;;;5090575;28;20463;-89
2023/10/30 11:55:42;;;;;;;11.70;2.33;;;14.20;99.90;;;;;;5046348;28;20051;-88
2023/10/30 11:58:11;;;;;;;12.82;3.22;;;15.60;99.90;;;;;;5091505;28;20077;-89
2023/10/30 12:00:44;;;;;;;11.32;2.22;;;15.70;99.90;;;;;;5090635;28;20051;-89
2023/10/30 12:03:10;;;;;;;;;;;14.70;99.90;;;;;;5091527;28;20047;-87
2023/10/30 12:05:53;;;;;;;12.65;3.28;;;14.80;99.90;;;;;;5091823;28;19919;-89
2023/10/30 12:08:19;;;;;;;12.68;4.35;;;15.90;99.90;;;;;;5093280;28;20032;-88
2023/10/30 12:11:14;;;;;;;12.63;2.85;;;16.50;99.90;;;;;;5100302;28;20067;-88
2023/10/30 12:13:40;;;;;;;14.35;2.70;;;15.10;99.90;;;;;;5084418;28;20056;-88
2023/10/30 12:16:50;;;;;;;13.73;2.40;;;16.50;99.90;;;;;;5080912;28;20043;-88
2023/10/30 12:19:20;;;;;;;12.00;3.10;;;15.50;99.90;;;;;;5069431;28;20084;-88
2023/10/30 12:21:49;;;;;;;15.00;5.35;;;16.60;99.90;;;;;;5078602;28;20051;-89
2023/10/30 12:24:16;;;;;;;13.63;3.65;;;15.80;99.90;;;;;;5073063;28;20063;-88
2023/10/30 12:26:42;;;;;;;13.02;2.38;;;15.10;99.90;;;;;;5090827;28;20040;-88
2023/10/30 12:29:10;;;;;;;9.20;1.95;;;15.10;99.90;;;;;;5073195;28;20058;-88
2023/10/30 12:31:50;;;;;;;13.75;4.03;;;16.00;99.90;;;;;;5085338;28;20044;-86
2023/10/30 12:34:22;;;;;;;12.73;3.47;;;16.10;99.90;;;;;;5091226;28;20518;-87
2023/10/30 12:36:52;;;;;;;13.88;2.60;;;16.20;99.90;;;;;;5084086;28;20044;-86
2023/10/30 12:39:21;;;;;;;11.77;2.40;;;15.10;99.90;;;;;;5096021;28;20040;-86
2023/10/30 12:42:11;;;;;;;12.68;2.47;;;15.20;99.90;;;;;;5104054;28;20063;-86
2023/10/30 12:44:36;;;;;;;17.30;5.53;;;15.80;99.90;;;;;;5073794;28;20055;-87
2023/10/30 12:47:18;;;;;;;19.13;10.43;;;15.70;99.90;;;;;;5073941;28;20036;-87
2023/10/30 12:49:43;;;;;;;11.98;2.72;;;15.10;99.90;;;;;;5072931;28;20049;-87
2023/10/30 12:52:09;;;;;;;11.85;2.35;;;15.50;99.90;;;;;;5081415;28;20043;-87
2023/10/30 12:54:37;;;;;;;11.75;2.58;;;15.00;99.90;;;;;;5093589;28;20488;-87
2023/10/30 12:57:10;;;;;;;15.02;2.72;;;15.10;99.90;;;;;;5092970;28;20055;-87
2023/10/30 12:59:36;;;;;;;12.30;3.38;;;15.10;99.90;;;;;;5093618;28;20062;-87
2023/10/30 13:02:09;;;;;;;11.27;2.95;;;15.90;99.90;;;;;;5092926;28;20039;-87
2023/10/30 13:04:50;;;;;;;23.00;14.32;;;15.00;99.90;;;;;;5072698;28;20048;-87
2023/10/30 13:07:16;;;;;;;12.32;3.80;;;14.90;99.90;;;;;;5072962;28;20095;-88
2023/10/30 13:09:43;;;;;;;14.02;5.18;;;15.80;99.90;;;;;;5072416;28;20496;-87
2023/10/30 13:12:08;;;;;;;8.82;2.47;;;15.80;99.90;;;;;;5073024;28;20047;-87
2023/10/30 13:14:40;;;;;;;8.85;2.35;;;15.30;99.90;;;;;;5073368;28;20052;-87
2023/10/30 13:17:06;;;;;;;12.27;3.30;;;14.80;99.90;;;;;;5072666;28;20131;-87
2023/10/30 13:19:32;;;;;;;9.65;2.33;;;15.80;99.90;;;;;;5072853;28;20064;-87
2023/10/30 13:22:02;;;;;;;11.00;2.30;;;16.00;99.90;;;;;;5073155;28;20037;-87
2023/10/30 13:25:31;;;;;;;9.23;2.30;;;14.70;99.90;;;;;;5083310;28;20076;-87
2023/10/30 13:28:00;;;;;;;12.15;2.47;;;14.00;99.90;;;;;;5093302;28;20048;-87